createdAt,value
2018-06-02T00:01:34.091Z,4.83
2018-06-02T00:04:02.266Z,5.27
2018-06-02T00:06:29.679Z,5.60
2018-06-02T00:11:24.059Z,4.85
2018-06-02T00:23:40.047Z,5.17
2018-06-02T00:26:08.218Z,5.13
2018-06-02T00:28:35.619Z,4.37
2018-06-02T00:31:03.036Z,4.13
2018-06-02T00:33:30.447Z,4.33
2018-06-02T00:35:57.857Z,4.30
2018-06-02T00:38:25.263Z,3.90
2018-06-02T00:40:52.679Z,4.13
2018-06-02T00:43:20.088Z,3.73
2018-06-02T00:45:48.260Z,3.70
2018-06-02T00:48:16.426Z,3.17
2018-06-02T00:50:43.830Z,3.30
2018-06-02T00:53:12.011Z,3.97
2018-06-02T00:55:40.187Z,3.43
2018-06-02T00:58:07.588Z,3.50
2018-06-02T01:00:34.995Z,3.70
2018-06-02T01:03:02.411Z,3.90
2018-06-02T01:05:29.838Z,3.60
2018-06-02T01:07:57.990Z,3.90
2018-06-02T01:10:26.163Z,3.93
2018-06-02T01:12:53.566Z,4.13
2018-06-02T01:15:20.975Z,3.37
2018-06-02T01:17:48.375Z,4.13
2018-06-02T01:20:16.556Z,4.03
2018-06-02T01:22:43.963Z,4.63
2018-06-02T01:25:12.143Z,4.30
2018-06-02T01:27:39.551Z,3.47
2018-06-02T01:30:06.955Z,3.87
2018-06-02T01:32:34.374Z,4.90
2018-06-02T01:35:01.780Z,3.83
2018-06-02T01:37:29.190Z,4.30
2018-06-02T01:39:56.595Z,4.60
2018-06-02T01:42:23.999Z,4.30
2018-06-02T01:44:51.494Z,5.33
2018-06-02T01:47:18.931Z,5.33
2018-06-02T01:49:46.334Z,5.03
2018-06-02T01:52:14.512Z,4.63
2018-06-02T01:54:42.684Z,4.67
2018-06-02T01:57:10.094Z,6.03
2018-06-02T01:59:37.486Z,5.27
2018-06-02T02:02:04.902Z,5.50
2018-06-02T02:04:32.303Z,4.53
2018-06-02T02:06:59.716Z,4.27
2018-06-02T02:09:27.122Z,4.57
2018-06-02T02:11:54.523Z,4.20
2018-06-02T02:14:21.927Z,4.50
2018-06-02T02:16:49.354Z,4.10
2018-06-02T02:19:16.871Z,4.27
2018-06-02T02:21:45.043Z,4.20
2018-06-02T02:24:12.506Z,4.30
2018-06-02T02:26:39.915Z,4.47
2018-06-02T02:29:08.091Z,4.27
2018-06-02T02:31:35.510Z,4.50
2018-06-02T02:34:03.699Z,4.70
2018-06-02T02:36:31.101Z,5.03
2018-06-02T02:38:58.530Z,4.67
2018-06-02T02:41:25.944Z,4.80
2018-06-02T02:43:53.334Z,4.20
2018-06-02T02:46:21.515Z,4.97
2018-06-02T02:48:48.942Z,4.10
2018-06-02T02:51:17.134Z,7.27
2018-06-02T02:53:44.530Z,3.97
2018-06-02T02:56:12.704Z,3.73
2018-06-02T02:58:40.879Z,4.20
2018-06-02T03:01:08.287Z,4.17
2018-06-02T03:03:36.455Z,6.90
2018-06-02T03:06:04.622Z,6.07
2018-06-02T03:08:32.027Z,4.93
2018-06-02T03:10:59.436Z,5.87
2018-06-02T03:13:26.838Z,4.60
2018-06-02T03:15:55.010Z,5.33
2018-06-02T03:18:22.413Z,5.60
2018-06-02T03:20:49.810Z,4.27
2018-06-02T03:23:17.215Z,4.53
2018-06-02T03:25:45.399Z,5.97
2018-06-02T03:28:12.817Z,5.30
2018-06-02T03:30:41.016Z,4.97
2018-06-02T03:33:09.155Z,4.90
2018-06-02T03:35:36.561Z,5.57
2018-06-02T03:38:03.962Z,6.40
2018-06-02T03:40:31.362Z,6.10
2018-06-02T03:42:58.773Z,6.23
2018-06-02T03:45:27.674Z,9.57
2018-06-02T03:47:55.848Z,6.23
2018-06-02T03:50:23.254Z,7.10
2018-06-02T03:52:50.668Z,6.80
2018-06-02T03:55:18.075Z,5.90
2018-06-02T03:57:45.482Z,6.27
2018-06-02T04:00:12.894Z,6.40
2018-06-02T04:02:40.294Z,6.30
2018-06-02T04:05:07.707Z,6.43
2018-06-02T04:07:35.103Z,6.30
2018-06-02T04:10:02.508Z,7.50
2018-06-02T04:12:29.915Z,5.77
2018-06-02T04:14:57.319Z,6.13
2018-06-02T04:17:24.726Z,6.27
2018-06-02T04:19:52.900Z,5.33
2018-06-02T04:22:20.303Z,6.60
2018-06-02T04:24:47.711Z,5.30
2018-06-02T04:27:15.107Z,5.40
2018-06-02T04:29:43.283Z,5.37
2018-06-02T04:32:12.353Z,4.93
2018-06-02T04:34:39.761Z,5.73
2018-06-02T04:37:08.679Z,4.63
2018-06-02T04:39:36.085Z,4.87
2018-06-02T04:42:03.488Z,4.73
2018-06-02T04:44:30.895Z,4.00
2018-06-02T04:46:58.295Z,5.93
2018-06-02T04:49:25.708Z,6.20
2018-06-02T04:51:53.119Z,4.57
2018-06-02T04:54:20.520Z,4.57
2018-06-02T04:56:47.927Z,4.40
2018-06-02T04:59:15.335Z,4.00
2018-06-02T05:01:43.515Z,4.17
2018-06-02T05:04:10.915Z,4.17
2018-06-02T05:06:38.328Z,3.97
2018-06-02T05:09:05.747Z,7.33
2018-06-02T05:11:33.147Z,3.53
2018-06-02T05:14:00.551Z,4.40
2018-06-02T05:16:27.958Z,3.30
2018-06-02T05:18:55.363Z,3.50
2018-06-02T05:21:23.543Z,3.77
2018-06-02T05:23:50.947Z,3.80
2018-06-02T05:26:18.360Z,4.97
2018-06-02T05:28:45.762Z,3.10
2018-06-02T05:31:13.176Z,2.80
2018-06-02T05:33:40.575Z,2.73
2018-06-02T05:36:07.987Z,3.23
2018-06-02T05:38:35.404Z,4.13
2018-06-02T05:41:02.815Z,3.10
2018-06-02T05:43:30.216Z,3.60
2018-06-02T05:45:57.664Z,3.63
2018-06-02T05:48:25.021Z,3.93
2018-06-02T05:50:52.434Z,3.97
2018-06-02T05:53:20.598Z,6.03
2018-06-02T05:55:48.031Z,4.03
2018-06-02T05:58:16.199Z,5.87
2018-06-02T06:00:43.603Z,7.77
2018-06-02T06:03:11.019Z,4.70
2018-06-02T06:05:38.429Z,3.93
2018-06-02T06:08:05.831Z,4.37
2018-06-02T06:10:34.011Z,5.07
2018-06-02T06:13:02.184Z,5.17
2018-06-02T06:15:29.607Z,4.93
2018-06-02T06:17:57.780Z,4.43
2018-06-02T06:20:25.179Z,5.50
2018-06-02T06:22:52.582Z,6.77
2018-06-02T06:25:19.990Z,5.50
2018-06-02T06:27:48.162Z,5.20
2018-06-02T06:30:15.615Z,5.33
2018-06-02T06:32:43.020Z,5.50
2018-06-02T06:35:11.186Z,5.57
2018-06-02T06:37:39.369Z,5.20
2018-06-02T06:40:06.767Z,5.43
2018-06-02T06:42:34.171Z,4.90
2018-06-02T06:45:01.596Z,4.90
2018-06-02T06:47:29.001Z,6.47
2018-06-02T06:49:57.167Z,5.37
2018-06-02T06:52:25.355Z,5.33
2018-06-02T06:54:52.763Z,4.97
2018-06-02T06:57:20.935Z,5.37
2018-06-02T06:59:48.339Z,5.97
2018-06-02T07:02:16.519Z,4.10
2018-06-02T07:04:44.691Z,4.77
2018-06-02T07:07:12.863Z,6.23
2018-06-02T07:09:40.263Z,4.60
2018-06-02T07:12:07.662Z,4.63
2018-06-02T07:14:35.066Z,3.60
2018-06-02T07:17:03.239Z,4.00
2018-06-02T07:19:30.643Z,4.50
2018-06-02T07:21:58.062Z,3.70
2018-06-02T07:24:25.458Z,3.50
2018-06-02T07:26:52.867Z,2.70
2018-06-02T07:29:20.275Z,2.67
2018-06-02T07:31:47.703Z,2.73
2018-06-02T07:34:15.159Z,2.37
2018-06-02T07:36:42.558Z,2.83
2018-06-02T07:39:10.732Z,2.90
2018-06-02T07:41:38.139Z,2.60
2018-06-02T07:44:05.547Z,2.53
2018-06-02T07:46:32.955Z,3.07
2018-06-02T07:49:00.360Z,2.67
2018-06-02T07:51:27.767Z,2.73
2018-06-02T07:53:55.195Z,3.33
2018-06-02T07:56:22.597Z,3.50
2018-06-02T07:58:50.775Z,3.03
2018-06-02T08:03:45.139Z,3.20
2018-06-02T08:08:39.517Z,2.83
2018-06-02T08:13:34.643Z,3.43
2018-06-02T08:16:02.039Z,3.30
2018-06-02T08:18:30.211Z,3.00
2018-06-02T08:23:24.571Z,2.90
2018-06-02T08:25:51.975Z,2.73
2018-06-02T08:30:47.103Z,2.60
2018-06-02T08:33:14.512Z,2.60
2018-06-02T08:35:41.910Z,3.70
2018-06-02T08:40:36.279Z,2.85
2018-06-02T08:43:03.678Z,2.77
2018-06-02T08:45:31.855Z,2.70
2018-06-02T08:47:59.258Z,2.90
2018-06-02T08:50:26.663Z,1.73
2018-06-02T08:52:54.067Z,2.60
2018-06-02T08:57:49.204Z,2.25
2018-06-02T09:02:43.571Z,1.70
2018-06-02T09:05:10.974Z,1.33
2018-06-02T09:07:39.140Z,1.70
2018-06-02T09:12:33.511Z,5.23
2018-06-02T09:15:00.921Z,2.03
2018-06-02T09:17:28.319Z,2.07
2018-06-02T09:22:22.688Z,3.07
2018-06-02T09:24:50.099Z,1.90
2018-06-02T09:27:18.272Z,1.10
2018-06-02T09:29:45.681Z,2.83
2018-06-02T09:32:13.083Z,1.60
2018-06-02T09:34:40.495Z,1.10
2018-06-02T09:37:07.894Z,1.07
2018-06-02T09:39:35.315Z,1.37
2018-06-02T09:42:02.711Z,1.97
2018-06-02T09:44:30.115Z,2.33
2018-06-02T09:46:57.522Z,4.40
2018-06-02T09:49:24.927Z,1.57
2018-06-02T09:51:52.336Z,2.57
2018-06-02T09:54:19.744Z,1.75
2018-06-02T09:56:47.153Z,3.12
2018-06-02T09:59:15.315Z,2.90
2018-06-02T10:01:42.727Z,2.62
2018-06-02T10:06:37.147Z,1.80
2018-06-02T10:09:05.244Z,2.00
2018-06-02T10:11:32.746Z,1.60
2018-06-02T10:14:00.157Z,1.83
2018-06-02T10:16:28.330Z,1.87
2018-06-02T10:18:55.732Z,2.00
2018-06-02T10:21:23.139Z,2.00
2018-06-02T10:26:17.506Z,3.75
2018-06-02T10:28:44.906Z,1.60
2018-06-02T10:31:13.079Z,1.87
2018-06-02T10:33:40.483Z,2.00
2018-06-02T10:36:07.895Z,1.65
2018-06-02T10:38:35.295Z,1.55
2018-06-02T10:41:03.474Z,3.10
2018-06-02T10:45:57.831Z,1.77
2018-06-02T10:48:25.239Z,1.52
2018-06-02T10:53:19.614Z,4.40
2018-06-02T11:00:41.707Z,1.60
2018-06-02T11:03:09.114Z,1.93
2018-06-02T11:05:36.515Z,1.85
2018-06-02T11:08:03.924Z,2.10
2018-06-02T11:10:31.326Z,5.77
2018-06-02T11:12:58.731Z,3.07
2018-06-02T11:15:26.136Z,4.47
2018-06-02T11:17:53.571Z,1.70
2018-06-02T11:22:47.930Z,1.60
2018-06-02T11:25:15.333Z,1.75
2018-06-02T11:47:19.979Z,2.60
2018-06-02T11:54:41.303Z,1.70
2018-06-02T11:57:08.703Z,2.08
2018-06-02T12:21:39.543Z,2.00
2018-06-02T12:26:34.775Z,1.73
2018-06-02T12:46:14.007Z,1.98
2018-06-02T12:53:35.356Z,1.58
2018-06-02T13:40:10.495Z,1.30
2018-06-02T13:45:04.895Z,1.90
2018-06-02T13:57:21.702Z,1.80
2018-06-02T14:31:43.616Z,1.85
2018-06-02T14:41:32.691Z,2.10
2018-06-02T15:55:09.142Z,4.10
2018-06-02T15:57:36.552Z,3.15
2018-06-02T16:00:03.959Z,1.80
2018-06-02T16:07:26.064Z,1.93
2018-06-02T16:12:21.280Z,1.85
2018-06-02T16:14:48.691Z,2.78
2018-06-02T16:19:43.819Z,2.05
2018-06-02T16:24:38.195Z,4.30
2018-06-02T16:34:27.258Z,1.65
2018-06-02T16:36:54.659Z,2.87
2018-06-02T16:39:22.071Z,2.25
2018-06-02T16:41:50.243Z,2.50
2018-06-02T16:44:18.419Z,4.53
2018-06-02T16:46:46.595Z,2.35
2018-06-02T16:51:40.963Z,3.03
2018-06-02T16:54:08.436Z,2.20
2018-06-02T16:56:35.815Z,3.50
2018-06-02T17:01:30.941Z,3.65
2018-06-02T17:08:53.043Z,3.10
2018-06-02T17:11:20.447Z,3.70
2018-06-02T17:13:47.967Z,3.12
2018-06-02T17:16:15.352Z,2.83
2018-06-02T17:18:42.756Z,2.87
2018-06-02T17:21:10.163Z,2.28
2018-06-02T17:23:37.572Z,2.97
2018-06-02T17:26:05.739Z,2.97
2018-06-02T17:28:33.913Z,2.40
2018-06-02T17:31:01.315Z,2.75
2018-06-02T17:33:28.734Z,2.90
2018-06-02T17:35:56.135Z,2.58
2018-06-02T17:38:23.546Z,2.10
2018-06-02T17:40:51.732Z,3.35
2018-06-02T17:43:19.131Z,2.83
2018-06-02T17:45:46.639Z,2.15
2018-06-02T17:55:35.799Z,4.50
2018-06-02T17:58:03.202Z,3.60
2018-06-02T18:00:30.611Z,8.50
2018-06-02T18:02:58.023Z,11.25
2018-06-02T18:05:25.426Z,3.92
2018-06-02T18:07:52.831Z,5.20
2018-06-02T18:15:14.159Z,3.47
2018-06-02T18:22:35.499Z,3.30
2018-06-02T18:25:02.898Z,3.40
2018-06-02T18:34:53.501Z,2.73
2018-06-02T18:37:21.671Z,4.73
2018-06-02T18:39:49.096Z,3.20
2018-06-02T18:42:17.268Z,6.67
2018-06-02T18:44:44.671Z,4.62
2018-06-02T18:47:12.087Z,3.90
2018-06-02T18:52:06.455Z,5.17
2018-06-02T18:54:33.862Z,3.50
2018-06-02T18:57:01.336Z,3.20
2018-06-02T18:59:28.732Z,3.87
2018-06-02T19:01:56.901Z,2.93
2018-06-02T19:04:24.302Z,3.87
2018-06-02T19:06:51.715Z,3.00
2018-06-02T19:09:19.119Z,3.20
2018-06-02T19:11:47.292Z,3.17
2018-06-02T19:14:14.692Z,3.00
2018-06-02T19:16:42.863Z,3.43
2018-06-02T19:19:11.031Z,3.27
2018-06-02T19:21:39.206Z,5.43
2018-06-02T19:26:33.594Z,4.90
2018-06-02T19:29:01.002Z,4.27
2018-06-02T19:31:29.186Z,6.03
2018-06-02T19:38:50.543Z,3.73
2018-06-02T19:41:17.938Z,3.40
2018-06-02T19:43:45.351Z,4.13
2018-06-02T19:46:12.781Z,4.73
2018-06-02T19:48:40.191Z,5.77
2018-06-02T19:51:07.576Z,4.50
2018-06-02T19:53:35.742Z,5.30
2018-06-02T19:56:03.203Z,6.87
2018-06-02T19:58:30.606Z,5.40
2018-06-02T20:00:58.774Z,5.23
2018-06-02T20:03:26.228Z,4.10
2018-06-02T20:05:53.635Z,4.20
2018-06-02T20:08:21.828Z,4.23
2018-06-02T20:10:49.218Z,4.47
2018-06-02T20:13:16.692Z,4.10
2018-06-02T20:15:44.894Z,4.30
2018-06-02T20:18:12.295Z,4.73
2018-06-02T20:20:40.496Z,6.93
2018-06-02T20:23:08.626Z,4.13
2018-06-02T20:25:36.031Z,4.00
2018-06-02T20:28:03.440Z,4.30
2018-06-02T20:30:30.853Z,5.40
2018-06-02T20:32:58.251Z,4.63
2018-06-02T20:35:25.732Z,4.50
2018-06-02T20:37:53.155Z,4.20
2018-06-02T20:40:21.333Z,4.27
2018-06-02T20:42:48.755Z,4.27
2018-06-02T20:45:16.922Z,4.90
2018-06-02T20:47:44.394Z,5.10
2018-06-02T20:50:11.733Z,9.13
2018-06-02T20:52:39.149Z,5.00
2018-06-02T20:55:07.327Z,4.63
2018-06-02T20:57:34.726Z,5.17
2018-06-02T21:00:02.129Z,4.37
2018-06-02T21:02:29.535Z,4.60
2018-06-02T21:04:56.945Z,4.20
2018-06-02T21:07:24.342Z,4.33
2018-06-02T21:09:51.751Z,3.90
2018-06-02T21:12:19.931Z,3.90
2018-06-02T21:14:47.350Z,4.50
2018-06-02T21:29:31.130Z,4.30
2018-06-02T21:31:58.550Z,4.70
2018-06-02T21:46:42.287Z,5.43
2018-06-02T21:49:09.699Z,5.37
2018-06-02T21:51:37.100Z,5.47
2018-06-02T21:54:04.535Z,5.50
2018-06-02T21:56:31.940Z,6.63
2018-06-02T21:58:59.346Z,5.70
2018-06-02T22:01:27.551Z,6.30
2018-06-02T22:03:54.982Z,5.37
2018-06-02T22:06:22.395Z,5.60
2018-06-02T22:18:39.962Z,5.50
2018-06-02T22:21:07.370Z,7.87
2018-06-02T22:23:34.775Z,6.17
2018-06-02T22:26:02.185Z,7.60
2018-06-02T22:30:56.596Z,5.83
2018-06-02T22:38:18.668Z,8.93
2018-06-02T22:40:46.067Z,6.27
2018-06-02T22:43:14.278Z,5.90
2018-06-02T22:45:41.646Z,7.90
2018-06-02T22:48:09.091Z,6.50
2018-06-02T22:50:36.502Z,6.47
2018-06-02T22:53:03.916Z,7.10
2018-06-02T22:55:31.315Z,7.40
2018-06-02T22:57:59.530Z,6.23
2018-06-02T23:00:26.952Z,9.47
2018-06-02T23:02:54.355Z,8.47
2018-06-02T23:05:22.548Z,7.43
2018-06-02T23:07:49.951Z,6.60
2018-06-02T23:10:17.375Z,6.80
2018-06-02T23:12:44.791Z,7.00
2018-06-02T23:15:12.191Z,6.90
2018-06-02T23:17:40.362Z,6.30
2018-06-02T23:47:10.495Z,7.40
2018-06-02T23:54:31.830Z,7.30
2018-06-02T23:56:59.243Z,7.45
2018-06-02T23:59:26.656Z,7.70
